Time;durP1;ratioP1;P1;durP2;ratioP2;P2;SDS_P1;SDS_P2;PMS_P1;PMS_P2;Temp;Humidity;BMP_temperature;BMP_pressure;BME280_temperature;BME280_humidity;BME280_pressure;Samples;Min_cycle;Max_cycle;Signal;HPM_P1;HPM_P2
2023/07/09 00:01:03;;;;;;;13.43;7.38;;;19.40;87.10;;;;;;6201746;23;20014;-70
2023/07/09 00:03:29;;;;;;;11.05;7.20;;;19.40;86.90;;;;;;6228782;23;20099;-71
2023/07/09 00:05:54;;;;;;;7.82;6.35;;;19.40;87.10;;;;;;6202298;23;20211;-71
2023/07/09 00:08:27;;;;;;;9.77;7.03;;;19.40;87.30;;;;;;6201759;23;20028;-73
2023/07/09 00:10:54;;;;;;;11.80;7.70;;;19.40;87.50;;;;;;6200114;23;20418;-68
2023/07/09 00:13:21;;;;;;;12.95;6.80;;;19.30;87.50;;;;;;6176140;23;20028;-73
2023/07/09 00:15:47;;;;;;;11.68;6.90;;;19.30;87.90;;;;;;6176302;23;20099;-68
2023/07/09 00:18:13;;;;;;;11.48;6.63;;;19.30;88.10;;;;;;6176655;23;20479;-68
2023/07/09 00:20:41;;;;;;;8.95;6.60;;;19.20;88.40;;;;;;6202434;23;20024;-70
2023/07/09 00:23:07;;;;;;;10.38;7.05;;;19.20;88.40;;;;;;6200950;23;20024;-71
2023/07/09 00:25:35;;;;;;;8.68;7.07;;;20.10;89.10;;;;;;6228876;23;20019;-68
2023/07/09 00:28:02;;;;;;;10.48;6.88;;;19.20;88.80;;;;;;6201758;23;20684;-68
2023/07/09 00:30:28;;;;;;;7.78;6.13;;;19.20;88.90;;;;;;6202295;23;20024;-69
2023/07/09 00:32:54;;;;;;;9.02;6.80;;;19.20;88.80;;;;;;6203219;23;20019;-69
2023/07/09 00:35:22;;;;;;;10.35;6.43;;;19.20;88.50;;;;;;6203879;23;20020;-72
2023/07/09 00:37:48;;;;;;;11.88;6.18;;;19.20;88.40;;;;;;6178975;23;20062;-68
2023/07/09 00:40:20;;;;;;;9.80;6.90;;;19.30;88.10;;;;;;6178471;23;20031;-67
2023/07/09 00:42:48;;;;;;;9.35;7.47;;;19.40;87.80;;;;;;6179289;23;20121;-68
2023/07/09 00:45:25;;;;;;;8.70;6.20;;;19.40;87.50;;;;;;6204031;23;20062;-67
2023/07/09 00:48:06;;;;;;;9.88;6.97;;;19.40;87.30;;;;;;6203178;23;20079;-68
2023/07/09 00:50:48;;;;;;;9.57;6.25;;;19.50;87.20;;;;;;6178718;23;20645;-68
2023/07/09 00:53:22;;;;;;;10.13;5.90;;;19.50;87.10;;;;;;6178188;23;20518;-68
2023/07/09 00:55:58;;;;;;;14.93;7.15;;;19.50;86.90;;;;;;6178902;23;20395;-70
2023/07/09 00:58:27;;;;;;;7.22;6.15;;;19.40;87.40;;;;;;6231316;23;20098;-70
2023/07/09 01:01:01;;;;;;;8.65;6.25;;;19.40;87.70;;;;;;6180372;23;20095;-69
2023/07/09 01:03:45;;;;;;;12.35;6.82;;;19.30;88.60;;;;;;6206227;23;20017;-74
2023/07/09 01:06:12;;;;;;;9.90;6.35;;;19.30;89.00;;;;;;6181229;23;20016;-74
2023/07/09 01:08:42;;;;;;;8.05;5.88;;;19.20;88.90;;;;;;6181698;23;20020;-65
2023/07/09 01:11:22;;;;;;;10.10;6.65;;;20.30;89.60;;;;;;6206016;23;20462;-70
2023/07/09 01:13:51;;;;;;;10.40;6.53;;;19.20;89.00;;;;;;6181968;23;20012;-66
2023/07/09 01:16:18;;;;;;;9.93;7.75;;;19.30;88.60;;;;;;6206908;23;20023;-74
2023/07/09 01:18:44;;;;;;;9.00;6.43;;;19.30;88.60;;;;;;6181439;23;20016;-66
2023/07/09 01:21:15;;;;;;;8.25;7.30;;;19.30;88.70;;;;;;6206909;23;20023;-67
2023/07/09 01:23:54;;;;;;;9.52;6.57;;;19.30;88.70;;;;;;6232865;23;20631;-71
2023/07/09 01:26:26;;;;;;;8.20;6.20;;;19.20;88.70;;;;;;6181581;23;20368;-72
2023/07/09 01:28:56;;;;;;;9.00;6.57;;;19.30;88.60;;;;;;6206986;23;20451;-70
2023/07/09 01:31:23;;;;;;;10.50;7.07;;;19.20;88.60;;;;;;6181491;23;20058;-74
2023/07/09 01:33:49;;;;;;;12.32;6.30;;;19.20;88.80;;;;;;6181838;23;20017;-64
2023/07/09 01:36:23;;;;;;;12.75;6.22;;;19.10;89.00;;;;;;6181232;23;20482;-66
2023/07/09 01:39:16;;;;;;;10.73;6.35;;;19.10;89.20;;;;;;6113615;23;20028;-66
2023/07/09 01:41:42;;;;;;;9.57;6.15;;;19.00;89.40;;;;;;6114845;23;20076;-73
2023/07/09 01:44:08;;;;;;;6.57;5.78;;;19.00;89.60;;;;;;6115281;23;20409;-73
2023/07/09 01:46:34;;;;;;;8.30;6.07;;;19.00;89.80;;;;;;6090825;23;20412;-67
2023/07/09 01:49:00;;;;;;;8.77;5.78;;;18.90;90.00;;;;;;6114689;23;20021;-70
2023/07/09 01:51:28;;;;;;;10.85;6.63;;;19.00;89.70;;;;;;6114970;23;20021;-66
2023/07/09 01:53:53;;;;;;;9.90;6.43;;;19.00;89.40;;;;;;6115272;23;20089;-72
2023/07/09 01:56:19;;;;;;;10.85;6.57;;;19.00;89.40;;;;;;6115620;23;20469;-73
2023/07/09 01:58:45;;;;;;;9.45;6.55;;;19.10;89.40;;;;;;6114460;23;20021;-67
2023/07/09 02:01:11;;;;;;;8.73;6.00;;;19.00;89.30;;;;;;6138921;23;20053;-61
2023/07/09 02:03:36;;;;;;;8.00;5.72;;;18.90;89.30;;;;;;6114995;23;20037;-64
2023/07/09 02:06:09;;;;;;;8.05;6.00;;;19.00;89.80;;;;;;6114954;23;20017;-67
2023/07/09 02:08:35;;;;;;;9.18;6.65;;;18.90;90.00;;;;;;6115078;23;20046;-71
2023/07/09 02:11:01;;;;;;;6.28;5.32;;;18.80;90.20;;;;;;6167123;23;20313;-67
2023/07/09 02:13:27;;;;;;;7.82;5.45;;;18.80;90.30;;;;;;6205766;23;20065;-68
2023/07/09 02:15:53;;;;;;;8.90;6.00;;;18.80;90.10;;;;;;6206381;23;20092;-69
2023/07/09 02:18:19;;;;;;;10.00;5.93;;;18.90;90.00;;;;;;6205604;23;20016;-68
2023/07/09 02:20:48;;;;;;;7.95;5.88;;;18.90;89.50;;;;;;6205992;23;20367;-69
2023/07/09 02:23:14;;;;;;;7.63;6.20;;;19.00;89.30;;;;;;6205220;23;20157;-68
2023/07/09 02:25:40;;;;;;;7.57;5.60;;;19.00;89.10;;;;;;6195500;23;20044;-71
2023/07/09 02:28:06;;;;;;;10.20;6.20;;;19.00;89.10;;;;;;6169611;23;20368;-71
2023/07/09 02:30:32;;;;;;;10.27;5.75;;;19.00;89.30;;;;;;6168705;23;20028;-74
2023/07/09 02:32:57;;;;;;;7.63;5.72;;;18.90;90.10;;;;;;6193833;23;20103;-70
2023/07/09 02:35:23;;;;;;;6.60;5.38;;;18.80;90.10;;;;;;6193839;23;20038;-69
2023/07/09 02:37:49;;;;;;;9.25;6.13;;;19.40;90.50;;;;;;6194513;23;20495;-71
2023/07/09 02:40:16;;;;;;;7.55;6.07;;;18.70;90.70;;;;;;6195036;23;20031;-73
2023/07/09 02:42:41;;;;;;;7.18;5.57;;;18.60;91.00;;;;;;6169566;23;20095;-72
2023/07/09 02:45:08;;;;;;;9.32;5.28;;;18.50;91.30;;;;;;6194578;23;20734;-74
2023/07/09 02:47:34;;;;;;;9.27;6.35;;;18.40;91.60;;;;;;6169418;23;20024;-70
2023/07/09 02:50:00;;;;;;;8.43;6.53;;;18.40;91.90;;;;;;6194616;23;20095;-65
2023/07/09 02:52:26;;;;;;;8.25;6.20;;;18.30;92.10;;;;;;6194941;23;20237;-71
2023/07/09 02:54:52;;;;;;;12.35;6.85;;;18.20;92.30;;;;;;6169101;23;20629;-73
2023/07/09 02:57:18;;;;;;;9.65;6.70;;;18.20;92.60;;;;;;6168955;23;20329;-76
2023/07/09 02:59:43;;;;;;;11.20;7.68;;;18.10;92.80;;;;;;6194215;23;20537;-68
2023/07/09 03:02:10;;;;;;;9.15;6.03;;;18.10;92.80;;;;;;6169200;23;20103;-66
2023/07/09 03:04:35;;;;;;;7.15;5.82;;;18.10;93.00;;;;;;6168365;23;20084;-72
2023/07/09 03:07:01;;;;;;;9.73;6.38;;;18.10;93.00;;;;;;6193321;23;20021;-66
2023/07/09 03:09:27;;;;;;;9.02;6.75;;;18.10;92.90;;;;;;6168846;23;20613;-74
2023/07/09 03:11:54;;;;;;;10.10;6.18;;;18.20;92.70;;;;;;6194747;23;20074;-70
2023/07/09 03:14:19;;;;;;;8.68;6.88;;;18.20;92.50;;;;;;6168855;23;20067;-74
2023/07/09 03:16:45;;;;;;;10.43;6.85;;;18.20;92.50;;;;;;6194093;23;20080;-66
2023/07/09 03:19:11;;;;;;;8.80;6.80;;;18.30;92.50;;;;;;6193765;23;20087;-70
2023/07/09 03:21:37;;;;;;;13.80;6.78;;;18.30;92.50;;;;;;6193571;23;20013;-69
2023/07/09 03:24:03;;;;;;;10.05;6.55;;;18.30;92.60;;;;;;6168340;23;20020;-72
2023/07/09 03:26:29;;;;;;;9.20;6.38;;;18.30;92.50;;;;;;6172954;23;20051;-71
2023/07/09 03:28:55;;;;;;;11.65;7.15;;;18.30;92.50;;;;;;6173285;23;20031;-72
2023/07/09 03:31:21;;;;;;;8.68;6.72;;;18.30;92.50;;;;;;6173566;23;20024;-71
2023/07/09 03:33:48;;;;;;;8.23;5.90;;;18.30;92.80;;;;;;6198810;23;20024;-70
2023/07/09 03:36:14;;;;;;;10.60;6.13;;;18.30;92.60;;;;;;6173954;23;20024;-68
2023/07/09 03:38:40;;;;;;;12.45;7.00;;;18.40;92.50;;;;;;6199448;23;20020;-71
2023/07/09 03:41:06;;;;;;;8.27;6.28;;;18.40;92.50;;;;;;6198746;23;20027;-69
2023/07/09 03:43:32;;;;;;;8.82;6.07;;;18.40;92.60;;;;;;6175401;23;20074;-72
2023/07/09 03:45:58;;;;;;;8.45;6.40;;;18.40;92.50;;;;;;6175513;23;20024;-70
2023/07/09 03:48:24;;;;;;;9.65;6.65;;;18.50;92.60;;;;;;6200593;23;20151;-68
2023/07/09 03:50:50;;;;;;;10.05;6.57;;;18.50;92.70;;;;;;6175501;23;20090;-75
2023/07/09 03:53:16;;;;;;;8.07;6.60;;;18.50;92.60;;;;;;6200892;23;20031;-72
2023/07/09 03:55:46;;;;;;;11.10;6.30;;;18.50;92.50;;;;;;6175732;23;20016;-75
2023/07/09 03:58:11;;;;;;;10.70;6.45;;;18.60;92.30;;;;;;6175318;23;20516;-71
2023/07/09 04:00:37;;;;;;;10.52;7.38;;;18.70;92.10;;;;;;6227143;23;20027;-72
2023/07/09 04:03:03;;;;;;;11.25;6.53;;;18.80;91.90;;;;;;6200605;23;20027;-72
2023/07/09 04:05:29;;;;;;;14.15;6.38;;;18.80;91.70;;;;;;6200031;23;20405;-65
2023/07/09 04:07:55;;;;;;;11.07;7.28;;;18.90;91.60;;;;;;6174642;23;20020;-67
2023/07/09 04:10:21;;;;;;;8.85;6.65;;;19.00;91.40;;;;;;6198806;23;20024;-71
2023/07/09 04:12:47;;;;;;;10.05;6.10;;;19.10;91.30;;;;;;6174582;23;20072;-70
2023/07/09 04:15:13;;;;;;;8.90;6.60;;;19.10;91.10;;;;;;6174421;23;20436;-69
2023/07/09 04:17:40;;;;;;;9.63;6.40;;;19.20;91.30;;;;;;6175537;23;20023;-70
2023/07/09 04:20:08;;;;;;;10.82;6.63;;;19.30;91.00;;;;;;6175072;23;20355;-71
2023/07/09 04:22:37;;;;;;;10.52;6.50;;;19.40;91.00;;;;;;6175664;23;20442;-69
2023/07/09 04:25:05;;;;;;;11.00;6.60;;;19.60;90.90;;;;;;6199580;23;20651;-67
2023/07/09 04:27:31;;;;;;;10.60;7.07;;;20.00;90.60;;;;;;6201106;23;20501;-73
2023/07/09 04:29:57;;;;;;;9.60;6.70;;;20.40;90.10;;;;;;6200040;23;20024;-66
2023/07/09 04:32:23;;;;;;;8.65;6.43;;;20.70;89.30;;;;;;6198653;23;20020;-74
2023/07/09 04:34:49;;;;;;;8.50;7.32;;;21.00;88.30;;;;;;6226946;23;20024;-69
2023/07/09 04:37:18;;;;;;;10.27;6.22;;;21.20;87.30;;;;;;6200596;23;20019;-69
2023/07/09 04:39:45;;;;;;;10.48;6.13;;;21.60;86.80;;;;;;6175380;23;20024;-68
2023/07/09 04:42:16;;;;;;;9.20;6.28;;;21.90;85.70;;;;;;6175017;23;20098;-65
2023/07/09 04:44:43;;;;;;;11.02;7.25;;;21.90;84.90;;;;;;6200366;23;20075;-72
2023/07/09 04:47:11;;;;;;;13.27;7.13;;;22.00;84.40;;;;;;6174297;23;20677;-72
2023/07/09 04:49:37;;;;;;;7.30;5.95;;;22.10;84.10;;;;;;6174290;23;20083;-69
2023/07/09 04:52:03;;;;;;;9.05;6.50;;;22.10;83.70;;;;;;6173845;23;20050;-70
2023/07/09 04:54:30;;;;;;;8.75;6.30;;;22.10;83.80;;;;;;6174228;23;20020;-72
2023/07/09 04:56:56;;;;;;;8.85;6.60;;;22.20;83.70;;;;;;6174129;23;20020;-69
2023/07/09 04:59:22;;;;;;;10.00;6.38;;;22.30;83.00;;;;;;6173967;23;20173;-68
2023/07/09 05:01:49;;;;;;;7.45;6.00;;;22.20;82.60;;;;;;6226582;23;20457;-72
2023/07/09 05:04:15;;;;;;;8.05;6.38;;;22.20;82.60;;;;;;6174607;23;20020;-69
2023/07/09 05:06:41;;;;;;;9.50;6.55;;;22.20;82.30;;;;;;6174733;23;20454;-71
2023/07/09 05:09:07;;;;;;;7.60;6.07;;;22.30;81.90;;;;;;6199088;23;20570;-67
2023/07/09 05:11:35;;;;;;;10.63;6.63;;;22.50;81.60;;;;;;6174191;23;20099;-68
2023/07/09 05:14:00;;;;;;;9.57;6.70;;;22.60;81.20;;;;;;6174535;23;20371;-68
2023/07/09 05:16:26;;;;;;;8.55;5.90;;;22.60;80.80;;;;;;6226865;23;20031;-70
2023/07/09 05:18:52;;;;;;;6.53;5.63;;;22.70;81.10;;;;;;6199721;23;20643;-68
2023/07/09 05:21:18;;;;;;;12.27;6.68;;;21.80;80.30;;;;;;6226355;23;20498;-69
2023/07/09 05:23:44;;;;;;;15.52;6.38;;;23.10;80.00;;;;;;6174340;23;20028;-66
2023/07/09 05:26:10;;;;;;;11.82;6.60;;;23.30;78.80;;;;;;6198170;23;20027;-69
2023/07/09 05:28:35;;;;;;;10.13;6.25;;;23.50;78.20;;;;;;6174847;23;20024;-71
2023/07/09 05:31:01;;;;;;;9.98;6.15;;;23.60;78.50;;;;;;6199727;23;20034;-70
2023/07/09 05:33:27;;;;;;;9.40;5.88;;;23.70;77.70;;;;;;6199787;23;20024;-72
2023/07/09 05:35:53;;;;;;;10.80;5.75;;;23.90;77.40;;;;;;6200177;23;20511;-67
2023/07/09 05:38:18;;;;;;;8.02;5.88;;;24.00;77.00;;;;;;6174733;23;20044;-74
2023/07/09 05:40:44;;;;;;;8.82;6.13;;;24.10;76.50;;;;;;6199404;23;20024;-71
2023/07/09 05:43:11;;;;;;;8.32;6.00;;;24.10;76.60;;;;;;6226194;23;20452;-66
2023/07/09 05:45:39;;;;;;;9.82;6.10;;;24.20;76.40;;;;;;6173594;23;20026;-67
2023/07/09 05:48:05;;;;;;;9.82;6.03;;;24.40;75.60;;;;;;6174392;23;20035;-68
2023/07/09 05:50:34;;;;;;;9.65;6.85;;;24.60;75.90;;;;;;6174384;23;20024;-74
2023/07/09 05:53:00;;;;;;;8.85;5.72;;;24.70;75.00;;;;;;6200172;23;20020;-67
2023/07/09 05:55:25;;;;;;;9.32;5.72;;;25.00;74.70;;;;;;6174603;23;20146;-70
2023/07/09 05:57:52;;;;;;;7.85;6.20;;;25.10;74.50;;;;;;6226207;23;20023;-69
2023/07/09 06:00:19;;;;;;;7.75;5.50;;;25.30;73.90;;;;;;6198354;23;20023;-69
2023/07/09 06:02:45;;;;;;;7.75;6.22;;;25.80;73.50;;;;;;6199841;23;20318;-71
2023/07/09 06:05:11;;;;;;;8.23;6.05;;;26.20;72.60;;;;;;6198777;23;20507;-69
2023/07/09 06:07:38;;;;;;;6.88;5.78;;;26.30;72.40;;;;;;6174293;23;20027;-67
2023/07/09 06:10:07;;;;;;;9.77;6.32;;;26.30;72.20;;;;;;6174760;23;20103;-67
2023/07/09 06:12:34;;;;;;;8.45;6.20;;;26.10;72.00;;;;;;6174054;23;20020;-68
2023/07/09 06:14:59;;;;;;;12.38;6.85;;;26.00;72.80;;;;;;6174697;23;20645;-69
2023/07/09 06:17:25;;;;;;;12.68;6.10;;;25.90;73.10;;;;;;6199131;23;20103;-68
2023/07/09 06:19:51;;;;;;;11.18;6.80;;;26.00;73.20;;;;;;6199447;23;20350;-66
2023/07/09 06:22:17;;;;;;;8.55;6.30;;;26.50;73.10;;;;;;6226280;23;20086;-68
2023/07/09 06:24:42;;;;;;;8.40;5.95;;;27.20;72.40;;;;;;6199652;23;20023;-74
2023/07/09 06:27:09;;;;;;;7.25;6.50;;;27.60;71.80;;;;;;6225996;23;20034;-70
2023/07/09 06:29:35;;;;;;;7.93;5.72;;;28.00;70.70;;;;;;6197928;23;20317;-70
2023/07/09 06:32:10;;;;;;;10.10;6.55;;;28.60;69.30;;;;;;6198905;23;20451;-67
2023/07/09 06:34:35;;;;;;;10.63;5.55;;;29.20;68.20;;;;;;6199212;23;20082;-67
2023/07/09 06:37:01;;;;;;;8.98;6.28;;;29.90;66.70;;;;;;6198188;23;20576;-69
2023/07/09 06:39:27;;;;;;;11.07;6.72;;;30.60;66.00;;;;;;6199107;23;20020;-69
2023/07/09 06:41:53;;;;;;;10.20;7.25;;;31.10;65.40;;;;;;6197805;23;20402;-68
2023/07/09 06:44:19;;;;;;;10.02;5.85;;;31.30;64.10;;;;;;6173959;23;20257;-67
2023/07/09 06:46:45;;;;;;;9.30;6.70;;;31.70;63.40;;;;;;6173981;23;20027;-67
2023/07/09 06:49:11;;;;;;;10.20;6.50;;;32.30;62.90;;;;;;6199145;23;20557;-64
2023/07/09 06:51:37;;;;;;;8.27;6.32;;;33.30;61.70;;;;;;6174681;23;20023;-71
2023/07/09 06:54:04;;;;;;;10.32;7.05;;;34.10;59.40;;;;;;6175462;23;20387;-73
2023/07/09 06:56:31;;;;;;;12.23;7.40;;;34.70;57.90;;;;;;6200962;23;20707;-67
2023/07/09 06:58:57;;;;;;;12.38;6.88;;;35.50;57.10;;;;;;6175012;23;20020;-72
2023/07/09 07:01:23;;;;;;;9.70;6.35;;;35.80;56.10;;;;;;6200650;23;20058;-66
2023/07/09 07:03:48;;;;;;;10.75;7.18;;;36.20;55.20;;;;;;6199958;23;20020;-67
2023/07/09 07:06:16;;;;;;;9.65;6.63;;;36.60;54.40;;;;;;6199079;23;20404;-67
2023/07/09 07:08:42;;;;;;;9.45;6.30;;;36.70;53.70;;;;;;6175107;23;20023;-71
2023/07/09 07:11:08;;;;;;;9.20;6.82;;;36.70;53.70;;;;;;6174675;23;20024;-68
2023/07/09 07:13:39;;;;;;;9.07;6.53;;;36.60;53.10;;;;;;6199795;23;20120;-68
2023/07/09 07:16:07;;;;;;;10.02;7.00;;;36.30;52.50;;;;;;6199620;23;20094;-73
2023/07/09 07:18:33;;;;;;;10.25;6.78;;;36.10;52.80;;;;;;6175746;23;20473;-71
2023/07/09 07:20:59;;;;;;;11.38;6.60;;;36.50;53.10;;;;;;6201843;23;20481;-68
2023/07/09 07:23:26;;;;;;;8.50;7.07;;;37.10;52.30;;;;;;6177753;23;20340;-69
2023/07/09 07:25:52;;;;;;;9.45;6.15;;;37.80;52.00;;;;;;6200700;23;20024;-66
2023/07/09 07:28:19;;;;;;;8.35;6.35;;;38.20;51.10;;;;;;6201854;23;20031;-73
2023/07/09 07:30:45;;;;;;;11.65;6.47;;;38.80;51.80;;;;;;6201388;23;20078;-69
2023/07/09 07:33:13;;;;;;;12.45;6.55;;;39.50;50.30;;;;;;6201740;23;20020;-68
2023/07/09 07:35:39;;;;;;;7.82;5.97;;;40.00;50.10;;;;;;6176848;23;20020;-68
2023/07/09 07:38:04;;;;;;;8.65;6.65;;;40.40;49.50;;;;;;6202041;23;20510;-71
2023/07/09 07:40:30;;;;;;;8.63;5.90;;;40.80;49.00;;;;;;6202374;23;20026;-67
2023/07/09 07:42:56;;;;;;;8.27;6.03;;;41.00;48.00;;;;;;6175856;23;20081;-69
2023/07/09 07:45:22;;;;;;;8.20;5.75;;;41.00;47.60;;;;;;6229176;23;20016;-64
2023/07/09 07:47:50;;;;;;;8.10;6.03;;;40.60;47.30;;;;;;6202220;23;20039;-68
2023/07/09 07:50:16;;;;;;;7.68;5.93;;;40.20;47.70;;;;;;6176053;23;20023;-68
2023/07/09 07:52:42;;;;;;;10.35;6.45;;;40.30;47.50;;;;;;6201409;23;20024;-70
2023/07/09 07:55:09;;;;;;;10.45;5.80;;;40.40;47.40;;;;;;6176206;23;20610;-66
2023/07/09 07:57:35;;;;;;;7.88;5.85;;;40.80;47.50;;;;;;6176118;23;20059;-67
2023/07/09 08:00:01;;;;;;;7.40;5.50;;;41.30;47.20;;;;;;6201486;23;20082;-64
2023/07/09 08:02:26;;;;;;;7.18;5.55;;;41.80;46.40;;;;;;6175842;23;20020;-70
2023/07/09 08:04:53;;;;;;;6.68;4.95;;;42.20;46.80;;;;;;6228126;23;20095;-67
2023/07/09 08:07:19;;;;;;;9.52;5.45;;;42.40;46.70;;;;;;6175981;23;20627;-69
2023/07/09 08:09:46;;;;;;;7.90;5.85;;;42.50;46.20;;;;;;6176733;23;20035;-61
2023/07/09 08:12:13;;;;;;;8.32;5.82;;;42.70;45.90;;;;;;6174133;23;20017;-65
2023/07/09 08:14:41;;;;;;;6.70;5.50;;;43.10;46.00;;;;;;6176293;23;20118;-70
2023/07/09 08:17:08;;;;;;;7.10;5.25;;;43.40;44.40;;;;;;6176542;23;20028;-67
2023/07/09 08:19:54;;;;;;;8.30;5.63;;;43.30;44.20;;;;;;6176033;23;20114;-64
2023/07/09 08:22:21;;;;;;;9.25;5.68;;;43.20;44.10;;;;;;6201604;23;20443;-68
2023/07/09 08:24:48;;;;;;;8.90;5.07;;;43.50;44.40;;;;;;6227258;23;20478;-69
2023/07/09 08:27:14;;;;;;;7.43;5.45;;;43.80;44.60;;;;;;6201071;23;20043;-68
2023/07/09 08:29:41;;;;;;;9.23;5.25;;;44.20;44.00;;;;;;6201888;23;20012;-70
2023/07/09 08:32:08;;;;;;;7.18;4.88;;;44.60;43.50;;;;;;6176949;23;20104;-70
2023/07/09 08:34:34;;;;;;;9.48;5.32;;;44.70;43.50;;;;;;6176489;23;20016;-65
2023/07/09 08:37:00;;;;;;;7.28;5.03;;;44.20;42.60;;;;;;6201189;23;20313;-67
2023/07/09 08:39:26;;;;;;;7.65;5.30;;;44.20;43.10;;;;;;6176451;23;20020;-72
2023/07/09 08:42:01;;;;;;;6.53;4.68;;;44.40;42.90;;;;;;6176542;23;20031;-68
2023/07/09 08:44:43;;;;;;;6.95;5.55;;;44.30;42.10;;;;;;6175320;23;20016;-73
2023/07/09 08:47:11;;;;;;;9.50;5.60;;;43.80;41.80;;;;;;6174954;23;20499;-70
2023/07/09 08:49:46;;;;;;;9.38;5.85;;;43.00;42.00;;;;;;6227086;23;20028;-72
2023/07/09 08:52:41;;;;;;;6.78;4.90;;;42.40;43.80;;;;;;6174844;23;20103;-70
2023/07/09 08:55:24;;;;;;;7.22;4.72;;;42.40;44.50;;;;;;6218821;23;20016;-72
2023/07/09 08:58:01;;;;;;;8.52;6.13;;;42.80;46.10;;;;;;6173727;23;20032;-70
2023/07/09 09:00:39;;;;;;;8.18;5.03;;;43.40;43.70;;;;;;6199422;23;20110;-66
2023/07/09 09:03:13;;;;;;;7.95;4.85;;;45.70;43.80;;;;;;6200411;23;20016;-64
2023/07/09 09:05:43;;;;;;;10.52;4.70;;;44.30;44.10;;;;;;6201185;22;20024;-65
2023/07/09 09:08:43;;;;;;;6.60;4.82;;;44.60;42.30;;;;;;6175601;23;20016;-69
2023/07/09 09:11:45;;;;;;;7.40;4.25;;;44.80;42.70;;;;;;6228237;23;20016;-69
2023/07/09 09:14:37;;;;;;;7.97;4.30;;;45.10;42.00;;;;;;6027384;23;20549;-67
2023/07/09 09:17:16;;;;;;;9.57;4.75;;;45.10;41.80;;;;;;6195293;23;20055;-72
2023/07/09 09:20:03;;;;;;;6.57;4.53;;;45.10;41.60;;;;;;6197827;23;20543;-71
2023/07/09 09:22:48;;;;;;;8.05;4.80;;;45.10;42.30;;;;;;6198328;23;20093;-65
2023/07/09 09:25:35;;;;;;;6.70;5.32;;;45.10;41.70;;;;;;6172096;23;20124;-71
2023/07/09 09:28:02;;;;;;;8.73;4.50;;;45.10;41.40;;;;;;6171848;23;20027;-66
2023/07/09 09:30:29;;;;;;;5.35;3.90;;;45.00;42.00;;;;;;6197797;23;20450;-64
2023/07/09 09:33:00;;;;;;;6.20;4.78;;;45.00;42.40;;;;;;6172190;23;20103;-72
2023/07/09 09:35:34;;;;;;;9.27;3.70;;;45.10;40.80;;;;;;6173996;23;20024;-68
2023/07/09 09:38:01;;;;;;;6.38;4.82;;;45.20;41.10;;;;;;6198641;23;20484;-69
2023/07/09 09:40:33;;;;;;;5.18;4.30;;;45.40;41.00;;;;;;6171885;23;20549;-67
2023/07/09 09:43:00;;;;;;;8.50;4.00;;;45.40;41.60;;;;;;6224784;23;20441;-67
2023/07/09 09:45:35;;;;;;;12.07;5.68;;;45.40;41.10;;;;;;6225179;23;20513;-64
2023/07/09 09:48:10;;;;;;;6.82;4.75;;;44.80;39.90;;;;;;6173034;23;20024;-64
2023/07/09 09:50:36;;;;;;;7.30;4.47;;;44.40;40.70;;;;;;6197435;23;20331;-69
2023/07/09 09:53:02;;;;;;;8.18;4.30;;;44.00;41.50;;;;;;6172496;23;20161;-64
2023/07/09 09:55:32;;;;;;;6.60;4.00;;;44.10;42.30;;;;;;6198276;23;20151;-68
2023/07/09 09:57:59;;;;;;;7.10;3.88;;;44.30;42.50;;;;;;6199106;23;20027;-66
2023/07/09 10:00:28;;;;;;;11.13;4.22;;;44.40;42.20;;;;;;6172748;23;20020;-71
2023/07/09 10:03:06;;;;;;;7.00;4.33;;;44.60;41.70;;;;;;6197354;23;20027;-70
2023/07/09 10:06:00;;;;;;;7.72;4.65;;;44.80;42.10;;;;;;6223118;23;20012;-68
2023/07/09 10:08:44;;;;;;;8.40;4.03;;;45.00;41.70;;;;;;6223253;23;20024;-66
2023/07/09 10:11:42;;;;;;;9.13;3.97;;;45.10;41.50;;;;;;6197595;23;20020;-66
2023/07/09 10:14:34;;;;;;;7.35;4.07;;;45.00;42.50;;;;;;6173967;23;20026;-66
2023/07/09 10:17:28;;;;;;;5.40;3.75;;;44.80;40.90;;;;;;6197745;23;20016;-69
2023/07/09 10:20:03;;;;;;;7.22;4.25;;;44.60;40.40;;;;;;6197561;23;20024;-66
2023/07/09 10:22:51;;;;;;;7.00;4.07;;;44.40;40.80;;;;;;6225768;23;20024;-69
2023/07/09 10:25:29;;;;;;;5.63;3.70;;;44.40;41.40;;;;;;6225149;23;20020;-68
2023/07/09 10:28:06;;;;;;;4.07;3.50;;;44.10;42.80;;;;;;6198032;23;20028;-69
2023/07/09 10:30:43;;;;;;;6.05;3.90;;;44.00;43.20;;;;;;6198041;23;20020;-69
2023/07/09 10:33:25;;;;;;;8.10;4.03;;;44.10;43.10;;;;;;6172757;23;20024;-65
2023/07/09 10:36:16;;;;;;;6.05;4.20;;;43.90;42.80;;;;;;6224267;23;20118;-73
2023/07/09 10:39:02;;;;;;;5.28;4.15;;;43.80;42.40;;;;;;6197353;23;20024;-66
2023/07/09 10:41:29;;;;;;;7.43;4.10;;;43.30;42.50;;;;;;6224752;23;20066;-67
2023/07/09 10:44:16;;;;;;;7.05;4.05;;;43.00;42.80;;;;;;6172066;23;20028;-65
2023/07/09 10:46:46;;;;;;;6.78;4.88;;;42.60;42.20;;;;;;6196680;23;20352;-66
2023/07/09 10:49:14;;;;;;;5.40;4.50;;;42.10;42.20;;;;;;6170961;23;20316;-69
2023/07/09 10:51:48;;;;;;;6.55;3.92;;;41.90;44.80;;;;;;6172637;23;20030;-73
2023/07/09 10:54:29;;;;;;;7.03;3.63;;;41.70;44.40;;;;;;6198445;23;20055;-70
2023/07/09 10:57:03;;;;;;;4.78;3.80;;;41.10;44.70;;;;;;6173866;23;20026;-67
2023/07/09 10:59:32;;;;;;;7.22;3.70;;;40.40;43.70;;;;;;6198728;23;20039;-70
2023/07/09 11:02:18;;;;;;;6.40;3.83;;;39.80;44.90;;;;;;6175111;23;20038;-69
2023/07/09 11:04:49;;;;;;;5.47;3.78;;;39.10;45.10;;;;;;6173984;23;20087;-68
2023/07/09 11:09:25;;;;;;;8.10;3.70;;;38.00;46.30;;;;;;5098277;27;20119;-69
2023/07/09 11:11:55;;;;;;;4.93;3.55;;;40.20;49.10;;;;;;5092443;28;20048;-68
2023/07/09 11:14:32;;;;;;;6.20;3.97;;;37.30;47.70;;;;;;5070748;28;20055;-72
2023/07/09 11:17:00;;;;;;;6.95;3.63;;;37.10;48.20;;;;;;5095917;28;20047;-71
2023/07/09 11:19:27;;;;;;;15.25;4.88;;;36.90;49.00;;;;;;5078362;28;20100;-65
2023/07/09 11:22:31;;;;;;;5.90;3.97;;;36.90;48.80;;;;;;5077901;28;20059;-71
2023/07/09 11:25:09;;;;;;;6.88;3.63;;;36.70;49.70;;;;;;5046866;28;20550;-72
2023/07/09 11:27:48;;;;;;;5.43;3.63;;;36.50;50.60;;;;;;5092235;28;20083;-65
2023/07/09 11:30:53;;;;;;;7.18;3.97;;;36.40;50.80;;;;;;5069375;28;20540;-71
2023/07/09 11:33:26;;;;;;;7.15;3.60;;;36.30;50.00;;;;;;5092442;28;20458;-67
2023/07/09 11:36:09;;;;;;;5.80;3.53;;;36.00;49.40;;;;;;5092968;28;20048;-72
2023/07/09 11:39:17;;;;;;;6.32;3.58;;;35.90;50.70;;;;;;5075458;28;20575;-69
2023/07/09 11:41:46;;;;;;;6.45;3.03;;;35.80;51.30;;;;;;5026393;28;20450;-69
2023/07/09 11:44:24;;;;;;;8.57;3.92;;;35.60;51.50;;;;;;5033256;28;20092;-67
2023/07/09 11:47:22;;;;;;;6.88;3.10;;;35.40;51.40;;;;;;5050109;28;20053;-73
2023/07/09 11:49:59;;;;;;;8.50;3.92;;;35.30;51.50;;;;;;5039722;28;20132;-73
2023/07/09 11:52:36;;;;;;;7.15;3.35;;;35.20;52.20;;;;;;5032650;28;20109;-67
2023/07/09 11:55:27;;;;;;;6.07;3.13;;;35.00;51.20;;;;;;5033617;28;20633;-65
2023/07/09 11:57:59;;;;;;;5.15;3.28;;;34.90;52.30;;;;;;5047655;28;20040;-65
2023/07/09 12:00:29;;;;;;;6.97;3.67;;;34.80;52.50;;;;;;5031999;28;20110;-68
2023/07/09 12:02:56;;;;;;;6.35;3.72;;;34.70;52.10;;;;;;5032955;28;20118;-69
2023/07/09 12:05:27;;;;;;;7.05;3.53;;;34.50;51.80;;;;;;5033020;28;20056;-69
2023/07/09 12:07:53;;;;;;;5.03;2.92;;;34.40;53.50;;;;;;5033236;28;20056;-69
2023/07/09 12:10:24;;;;;;;8.50;3.72;;;34.30;54.10;;;;;;5032780;28;20078;-70
2023/07/09 12:12:54;;;;;;;;;;;34.30;54.50;;;;;;5059656;28;20063;-68
2023/07/09 12:15:27;;;;;;;5.65;3.28;;;34.20;54.90;;;;;;5092426;28;19927;-69
2023/07/09 12:18:16;;;;;;;6.38;3.55;;;34.20;54.60;;;;;;5091595;28;20047;-67
2023/07/09 12:20:48;;;;;;;4.97;3.50;;;34.30;55.60;;;;;;5054844;28;20060;-69
2023/07/09 12:23:29;;;;;;;5.05;3.17;;;34.20;56.80;;;;;;5018758;28;20056;-74
2023/07/09 12:26:00;;;;;;;5.57;3.38;;;34.20;54.00;;;;;;5024282;28;20642;-70
2023/07/09 12:28:27;;;;;;;8.40;3.47;;;34.00;54.20;;;;;;5051037;28;20524;-70
2023/07/09 12:30:54;;;;;;;6.18;3.58;;;34.00;54.40;;;;;;5053454;28;20121;-74
2023/07/09 12:33:22;;;;;;;5.90;3.58;;;33.90;54.10;;;;;;5037529;28;20134;-68
2023/07/09 12:35:59;;;;;;;6.45;3.10;;;33.90;54.30;;;;;;5037419;28;20600;-65
2023/07/09 12:38:28;;;;;;;4.80;3.30;;;33.90;54.50;;;;;;5037310;28;20488;-72
2023/07/09 12:40:55;;;;;;;5.50;3.28;;;33.90;55.90;;;;;;5024544;28;20052;-73
2023/07/09 12:43:31;;;;;;;5.82;3.70;;;33.90;55.70;;;;;;5053988;28;20059;-70
2023/07/09 12:45:59;;;;;;;4.47;3.15;;;33.50;56.10;;;;;;5038713;28;20090;-68
2023/07/09 12:48:28;;;;;;;6.15;2.90;;;33.90;56.50;;;;;;5055892;28;20049;-69
2023/07/09 12:50:59;;;;;;;7.20;3.38;;;33.90;56.40;;;;;;5040419;28;20056;-66
2023/07/09 12:53:28;;;;;;;7.32;3.25;;;33.90;56.70;;;;;;5059804;28;20043;-73
2023/07/09 12:56:00;;;;;;;7.90;3.75;;;33.80;57.10;;;;;;5060514;28;20048;-72
2023/07/09 12:58:32;;;;;;;8.13;3.20;;;33.80;56.30;;;;;;5058978;28;20291;-68
2023/07/09 13:01:04;;;;;;;8.32;3.60;;;33.80;55.00;;;;;;5076950;28;20046;-69
2023/07/09 13:03:32;;;;;;;6.38;3.33;;;33.80;55.10;;;;;;5060815;28;20051;-67